Aptos, California
Current Conditions -  °F | °C
As of 12:53 AM on Thursday 23 Oct 2014 (Local Time) from KWVI Reporting Station
Clear Clear  
Wind Chill: 58°   Ceiling: Unl
Heat Index: 58°   Visibility: 10mi
Dew Point: 50°   Wind: 6mph
Humidity: 75%   Direction: 310°NW
Pressure: 30.04"   Gusts: NA
Location:  36.98°N, 121.89°W
Report Text: KWVI 230753Z AUTO 31005KT 10SM CLR 14/10 A3004 RMK AO2 SLP170 T01440100 402560089
Loading
Personal Weather Stations






























Interactive Weather Map
Tropical Storm Tracking
New forecast layout! Learn more

10-Day Weather Forecast

Advertisements
Track Severe Weather on mobile